Highlands Peak, California Weather observations

Data are for observation ending at time listed.
 Day   Time    Ave.   Ave.  Ave.  Vector   Max.   Stn.    Total    Solar   Ave.  
  of    of     Air    Rel.  Wind   Wind    Wind   Baro.  Precip.   Rad.    Soil  
Year   Day     Temp.  Hum.  Speed  Dir.    Gust   Pres.                    Temp. 
2015   (PST)    F      %     mph   deg.    mph     mb.     in.     W/m2     F   
------------------------------------------------------------------------------
  85    6:50   66.4    29    0.8   288      2.9   934.4    0.00     142    61.0
  85    7:00   67.4    28    2.1   211      4.4   934.5    0.00     182    60.9
  85    7:10   67.1    27    2.9   224      4.4   934.6    0.00     222    60.8
  85    7:20   66.9    28    2.4   239      3.9   934.6    0.00     262    60.7
  85    7:30   67.8    30    0.7    90      2.1   934.6    0.00     302    60.7
  85    7:40   69.1    29    1.5    93      2.4   934.7    0.00     343    60.6
  85    7:50   70.0    25    0.4   206      2.3   934.8    0.00     382    60.6
  85    8:00   68.8    26    1.2   216      2.9   934.9    0.00     421    60.5
  85    8:10   68.8    27    0.8   248      1.6   935.0    0.00     459    60.5
  85    8:20   68.6    29    0.4   249      1.2   935.1    0.00     496    60.5
  85    8:30   69.1    29    0.4    46      2.5   935.2    0.00     533    60.6
  85    8:40   68.8    31    1.3   287      2.5   935.3    0.00     568    60.6
  85    8:50   69.0    31    1.0   324      2.4   935.3    0.00     603    60.7
  85    9:00   70.0    31    0.8   299      2.3   935.3    0.00     637    60.8
  85    9:10   69.8    31    1.4   273      3.3   935.4    0.00     668    61.0
  85    9:20   69.0    32    1.9   274      3.3   935.4    0.00     699    61.1
  85    9:30   69.5    31    1.6   270      3.3   935.4    0.00     728    61.3
  85    9:40   70.1    32    1.5   265      3.6   935.4    0.00     752    61.5
  85    9:50   71.2    32    2.6   163      5.2   935.4    0.00     777    61.7
  85   10:00   73.3    30    3.6   208      6.9   935.4    0.00     801    61.9
  85   10:10   71.9    31    2.5   254      6.0   935.4    0.00     823    62.2
  85   10:20   72.0    31    1.7   278      4.2   935.4    0.00     843    62.4
  85   10:30   71.6    32    2.3   256      4.2   935.4    0.00     861    62.7
  85   10:40   72.2    32    1.7   268      3.7   935.4    0.00     877    63.0
  85   10:50   72.0    32    2.4   273      4.6   935.4    0.00     893    63.3
  85   11:00   72.2    31    2.0   265      4.0   935.4    0.00     906    63.6
  85   11:10   72.7    32    1.9   284      3.6   935.4    0.00     919    64.0
  85   11:20   73.6    30    3.2   258      6.2   935.3    0.00     929    64.3
  85   11:30   73.3    31    2.8   262      6.0   935.3    0.00     936    64.7
  85   11:40   73.0    31    2.5   267      5.7   935.3    0.00     943    65.1
  85   11:50   74.1    30    3.0   249      5.0   935.3    0.00     947    65.4
  85   12:00   74.8    29    2.8   246      4.6   935.3    0.00     948    65.8
  85   12:10   75.2    29    2.9   243      5.6   935.2    0.00     949    66.1
  85   12:20   74.6    30    3.4   264      5.3   935.2    0.00     947    66.5
  85   12:30   75.1    29    3.0   240      5.6   935.1    0.00     944    66.8
  85   12:40   75.8    29    3.5   257      6.1   935.0    0.00     940    67.2
  85   12:50   75.1    29    3.7   268      6.1   935.0    0.00     934    67.6
  85   13:00   75.1    29    3.2   253      6.2   934.9    0.00     927    67.8
  85   13:10   75.2    28    3.9   257      6.5   934.8    0.00     916    68.2
  85   13:20   74.5    29    3.7   266      6.1   934.7    0.00     903    68.6
  85   13:30   73.8    28    3.5   264      6.4   934.6    0.00     889    69.0
  85   13:40   73.5    28    2.9   257      5.8   934.5    0.00     874    69.3
  85   13:50   74.6    26    3.6   239      6.4   934.4    0.00     856    69.7
  85   14:00   76.0    25    3.7   237      8.0   934.3    0.00     837    70.1
  85   14:10   76.2    26    3.2   241      6.5   934.3    0.00     816    70.4
  85   14:20   76.5    26    3.5   239      6.4   934.2    0.00     794    70.8
  85   14:30   75.7    25    3.6   244      6.6   934.2    0.00     752    71.1
  85   14:40   76.7    25    3.5   260      5.8   934.1    0.00     746    71.5
  85   14:50   75.8    26    4.7   265      8.3   934.1    0.00     720    71.8
  85   15:00   75.9    27    4.6   270      7.5   934.0    0.00     693    72.1
  85   15:10   76.3    25    3.9   262      7.4   933.9    0.00     663    72.4
  85   15:20   76.7    25    3.8   266      6.3   933.9    0.00     631    72.7
  85   15:30   76.5    25    5.0   272      7.7   933.9    0.00     599    73.0
  85   15:40   76.4    23    4.7   266      7.7   933.9    0.00     566    73.2
  85   15:50   76.7    24    4.8   273      7.2   933.9    0.00     533    73.4
  85   16:00   77.0    24    5.1   278      8.0   933.9    0.00     497    73.6
  85   16:10   76.5    25    5.2   270      7.5   933.9    0.00     459    73.9
  85   16:20   76.0    25    4.3   265      6.9   933.8    0.00     422    74.1
  85   16:30   75.8    24    4.3   264      6.9   933.8    0.00     385    74.2
  85   16:40   75.6    23    2.8   268      5.5   933.8    0.00     348    74.3
  85   16:50   75.2    25    3.6   270      5.0   933.7    0.00     310    74.5
  85   17:00   74.8    26    3.3   278      5.4   933.6    0.00     272    74.6
  85   17:10   74.8    26    3.3   275      5.0   933.6    0.00     234    74.7
  85   17:20   74.4    28    3.2   270      5.1   933.6    0.00     198    74.8
  85   17:30   74.5    28    1.8   288      2.9   933.6    0.00     163    74.9
  85   17:40   73.7    28    1.4    63      2.7   933.5    0.00     131    75.0
  85   17:50   72.1    27    2.3    70      2.8   933.5    0.00     101    75.1
  85   18:00   71.9    22    2.7    71      3.2   933.4    0.00      73    75.0
  85   18:10   71.7    24    2.9    66      3.1   933.4    0.00      47    74.9
  85   18:20   71.1    24    3.9    72      4.5   933.4    0.00      25    74.8
  85   18:30   70.1    27    3.8    92      4.4   933.4    0.00       8    74.6
  85   18:40   70.1    25    3.8    86      5.3   933.4    0.00       2    74.5
  85   18:50   70.4    22    3.3    74      5.0   933.4    0.00       0    74.3
  85   19:00   70.6    20    1.9    91      5.0   933.4    0.00       0    74.1
  85   19:10   70.9    20    1.3   282      2.4   933.5    0.00       0    74.0
  85   19:20   71.1    19    1.1   296      1.8   933.5    0.00       0    73.9
  85   19:30   70.8    20    0.8   278      3.3   933.6    0.00       0    73.8
  85   19:40   69.5    18    4.5    71      6.0   933.7    0.00       0    73.6
  85   19:50   69.0    18    4.8    69      6.5   933.8    0.00       0    73.2
  85   20:00   69.3    18    3.7    29      4.7   933.9    0.00       0    72.9
  85   20:10   69.0    18    3.5    58      5.1   933.9    0.00       0    72.7
  85   20:20   69.2    18    2.3    53      3.7   934.0    0.00       0    72.4
  85   20:30   69.5    18    2.8    34      4.2   934.0    0.00       0    72.1
  85   20:40   69.5    17    3.7    41      5.6   934.0    0.00       0    71.9
  85   20:50   69.8    15    4.0    62      5.8   934.1    0.00       0    71.6
  85   21:00   69.2    16    4.7    72      6.1   934.1    0.00       0    71.3
  85   21:10   68.4    17    4.2    52      6.2   934.2    0.00       0    71.0
  85   21:20   68.3    19    2.7   330      3.9   934.3    0.00       0    70.9
  85   21:30   68.6    21    2.0   305      3.0   934.4    0.00       0    70.8
  85   21:40   68.7    22    3.3   300      4.7   934.4    0.00       0    70.8
  85   21:50   67.2    23    3.4   316      4.9   934.5    0.00       0    70.7
  85   22:00   68.1    19    2.3    40      4.3   934.5    0.00       0    70.5
  85   22:10   69.0    18    2.1     5      4.5   934.5    0.00       0    70.2
  85   22:20   68.6    21    4.0   326      5.3   934.5    0.00       0    70.1
  85   22:30   68.3    21    4.5   324      6.4   934.5    0.00       0    69.9
  85   22:40   67.5    22    3.4   323      4.8   934.5    0.00       0    69.9
  85   22:50   68.7    20    1.8   292      2.9   934.5    0.00       0    69.7
  85   23:00   69.0    19    2.6   286      3.5   934.5    0.00       0    69.6
  85   23:10   68.6    20    3.0   300      4.7   934.6    0.00       0    69.5
  85   23:20   68.9    21    1.9   322      2.9   934.6    0.00       0    69.3
  85   23:30   69.3    20    2.0   339      3.1   934.6    0.00       0    69.2
  85   23:40   69.1    21    4.0   326      5.9   934.5    0.00       0    69.0
  85   23:50   68.2    21    4.6   326      6.3   934.5    0.00       0    68.9
  86    0:00   67.7    21    3.1   324      5.5   934.4    0.00       0    68.7
  86    0:10   68.7    20    2.4   340      3.8   934.4    0.00       0    68.5
  86    0:20   68.6    20    1.7   322      2.6   934.4    0.00       0    68.4
  86    0:30   68.5    21    2.4   338      4.6   934.4    0.00       0    68.3
  86    0:40   68.7    21    1.2    10      2.1   934.4    0.00       0    68.2
  86    0:50   68.4    21    1.8    58      2.6   934.3    0.00       0    67.9
  86    1:00   68.6    22    2.0   328      3.7   934.3    0.00       0    67.7
  86    1:10   68.4    22    0.7   328      1.6   934.4    0.00       0    67.6
  86    1:20   68.1    22    0.7    73      1.6   934.3    0.00       0    67.5
  86    1:30   67.8    22    1.5    67      2.9   934.3    0.00       0    67.3
  86    1:40   68.1    22    1.4    17      2.5   934.3    0.00       0    67.2
  86    1:50   68.0    22    1.8    65      3.7   934.2    0.00       0    67.0
  86    2:00   67.7    22    2.3    45      3.9   934.1    0.00       0    66.8
  86    2:10   67.1    23    3.6    55      5.3   934.0    0.00       0    66.5
  86    2:20   67.2    23    3.9    68      4.8   934.0    0.00       0    66.3
  86    2:30   67.1    23    4.4    73      6.4   933.9    0.00       0    66.1
  86    2:40   66.7    23    4.8    78      6.3   933.8    0.00       0    65.9
  86    2:50   66.1    23    5.1    68      7.0   933.8    0.00       0    65.7
  86    3:00   66.3    23    5.3    73      6.4   933.7    0.00       0    65.5
  86    3:10   66.6    22    4.7    69      7.0   933.7    0.00       0    65.3
  86    3:20   66.8    22    4.3    58      6.9   933.8    0.00       0    65.2
  86    3:30   67.0    22    4.5    62      6.3   933.8    0.00       0    65.0
  86    3:40   67.1    22    4.3    58      5.8   933.7    0.00       0    64.9
  86    3:50   67.4    22    4.2    56      5.3   933.7    0.00       0    64.8
  86    4:00   67.3    22    4.5    61      5.8   933.7    0.00       0    64.7
  86    4:10   67.0    22    4.2    59      5.7   933.7    0.00       0    64.5
  86    4:20   67.3    22    4.0    64      5.3   933.7    0.00       0    64.4
  86    4:30   67.1    22    4.1    53      6.0   933.6    0.00       0    64.3
  86    4:40   67.4    21    4.1    57      5.8   933.6    0.00       0    64.2
  86    4:50   67.0    22    4.7    52      6.4   933.6    0.00       0    64.1
  86    5:00   67.3    21    4.9    47      7.1   933.6    0.00       0    64.1
  86    5:10   67.9    20    5.0    21      6.4   933.6    0.00       0    64.1
  86    5:20   68.3    20    4.7     4      6.7   933.6    0.00       0    64.1
  86    5:30   68.0    21    3.3    50      5.8   933.6    0.00       0    64.0
  86    5:40   67.9    21    3.0    73      4.7   933.6    0.00       0    63.8
  86    5:50   67.5    21    2.8    82      4.1   933.6    0.00       1    63.7
  86    6:00   67.5    21    2.1    74      3.4   933.6    0.00       3    63.7
  86    6:10   67.4    21    2.6    85      3.9   933.6    0.00       7    63.6
  86    6:20   68.0    20    1.6     6      3.7   933.7    0.00      12    63.7
  86    6:30   67.6    22    3.4   323      3.9   933.8    0.00      16    63.7
  86    6:40   67.6    21    2.0   352      3.7   933.9    0.00      40    63.6

Return to Highlands Peak graphs page.


Western Regional Climate Center,wrcc@dri.edu